createdAt,value
2022-10-25T00:00:00.463Z,988.4
2022-10-25T00:05:00.482Z,988.4
2022-10-25T00:10:00.488Z,988.4
2022-10-25T00:15:00.474Z,988.2
2022-10-25T00:20:00.501Z,988.4
2022-10-25T00:25:00.538Z,988.4
2022-10-25T00:30:00.494Z,988.4
2022-10-25T00:35:00.599Z,988.4
2022-10-25T00:40:00.506Z,988
2022-10-25T00:45:00.633Z,988
2022-10-25T00:50:00.529Z,988
2022-10-25T00:55:00.566Z,987.5
2022-10-25T01:00:00.542Z,987.5
2022-10-25T01:05:00.532Z,987.3
2022-10-25T01:10:00.540Z,987.1
2022-10-25T01:15:00.542Z,987.5
2022-10-25T01:20:00.551Z,987.7
2022-10-25T01:25:00.588Z,987.7
2022-10-25T01:30:00.443Z,988
2022-10-25T01:35:00.515Z,988.4
2022-10-25T01:40:00.372Z,988.6
2022-10-25T01:45:00.124Z,988.6
2022-10-25T01:50:00.116Z,988.4
2022-10-25T01:55:00.111Z,988.6
2022-10-25T02:00:00.118Z,988.8
2022-10-25T02:05:01.761Z,988.8
2022-10-25T02:10:01.824Z,988.8
2022-10-25T02:15:01.791Z,988.8
2022-10-25T02:20:01.791Z,988.8
2022-10-25T02:25:01.785Z,988.6
2022-10-25T02:30:01.799Z,988.4
2022-10-25T02:35:01.869Z,988.4
2022-10-25T02:40:01.804Z,988.2
2022-10-25T02:45:01.809Z,988.2
2022-10-25T02:50:01.847Z,988
2022-10-25T02:55:01.814Z,988
2022-10-25T03:00:01.917Z,987.7
2022-10-25T03:05:01.847Z,987.5
2022-10-25T03:10:01.827Z,987.5
2022-10-25T03:15:01.947Z,987.7
2022-10-25T03:20:01.855Z,988
2022-10-25T03:25:01.884Z,988
2022-10-25T03:30:01.861Z,988
2022-10-25T03:35:01.885Z,988
2022-10-25T03:40:02.012Z,988
2022-10-25T03:45:01.970Z,988
2022-10-25T03:50:01.971Z,988.2
2022-10-25T03:55:02.030Z,988.2
2022-10-25T04:00:01.907Z,988
2022-10-25T04:05:01.951Z,988
2022-10-25T04:10:01.920Z,988.2
2022-10-25T04:15:01.901Z,988.4
2022-10-25T04:20:01.907Z,988.2
2022-10-25T04:25:01.911Z,988.4
2022-10-25T04:30:01.917Z,988.2
2022-10-25T04:35:01.932Z,988.4
2022-10-25T04:40:01.927Z,988.2
2022-10-25T04:45:01.931Z,988.2
2022-10-25T04:50:01.939Z,988
2022-10-25T04:55:01.943Z,988
2022-10-25T05:00:01.951Z,988
2022-10-25T05:05:01.953Z,988
2022-10-25T05:10:01.952Z,988.2
2022-10-25T05:15:01.961Z,988
2022-10-25T05:20:02.119Z,988
2022-10-25T05:25:02.104Z,988
2022-10-25T05:30:02.111Z,988.2
2022-10-25T05:35:02.217Z,988
2022-10-25T05:40:02.120Z,988
2022-10-25T05:45:02.133Z,988
2022-10-25T05:50:02.136Z,988
2022-10-25T05:55:02.198Z,988
2022-10-25T06:00:02.157Z,988
2022-10-25T06:05:02.198Z,988
2022-10-25T06:10:02.018Z,988
2022-10-25T06:15:02.267Z,987.7
2022-10-25T06:20:02.203Z,987.7
2022-10-25T06:25:02.295Z,987.7
2022-10-25T06:30:02.187Z,987.7
2022-10-25T06:35:02.299Z,987.5
2022-10-25T06:40:02.201Z,987.5
2022-10-25T06:45:02.198Z,987.5
2022-10-25T06:50:02.384Z,987.3
2022-10-25T06:55:02.232Z,987.5
2022-10-25T07:00:02.260Z,987.3
2022-10-25T07:05:02.236Z,987.5
2022-10-25T07:10:02.224Z,987.3
2022-10-25T07:15:02.236Z,987.3
2022-10-25T07:20:02.237Z,987.1
2022-10-25T07:25:02.125Z,987.1
2022-10-25T07:30:02.100Z,987.1
2022-10-25T07:35:02.226Z,986.9
2022-10-25T07:40:00.188Z,986.9
2022-10-25T07:45:00.200Z,986.7
2022-10-25T07:50:00.165Z,986.7
2022-10-25T07:55:00.228Z,986.4
2022-10-25T08:00:00.190Z,986.7
2022-10-25T08:05:00.180Z,986.2
2022-10-25T08:10:00.180Z,985.8
2022-10-25T08:15:00.226Z,985.4
2022-10-25T08:20:00.239Z,985.6
2022-10-25T08:25:00.240Z,985.6
2022-10-25T08:30:00.204Z,985.8
2022-10-25T08:35:00.204Z,985.8
2022-10-25T08:40:00.241Z,985.4
2022-10-25T08:45:00.215Z,984.5
2022-10-25T08:50:00.254Z,985.1
2022-10-25T08:55:03.283Z,984.7
2022-10-25T09:00:00.230Z,984.9
2022-10-25T09:05:00.243Z,984.7
2022-10-25T09:10:00.245Z,984.3
2022-10-25T09:15:00.248Z,984.5
2022-10-25T09:20:00.259Z,983.6
2022-10-25T09:25:00.252Z,983.6
2022-10-25T09:30:03.771Z,983.6
2022-10-25T09:35:00.268Z,982.7
2022-10-25T09:40:00.283Z,983.2
2022-10-25T09:45:00.298Z,983.6
2022-10-25T09:50:00.280Z,981.9
2022-10-25T09:55:00.293Z,982.5
2022-10-25T10:00:00.288Z,982.3
2022-10-25T10:05:00.306Z,982.5
2022-10-25T10:10:00.365Z,982.7
2022-10-25T10:15:00.408Z,982.7
2022-10-25T10:20:00.407Z,983.2
2022-10-25T10:25:00.473Z,983.2
2022-10-25T10:30:00.443Z,983.2
2022-10-25T10:35:00.334Z,983.2
2022-10-25T10:40:00.342Z,982.3
2022-10-25T10:45:00.346Z,981.9
2022-10-25T10:50:00.345Z,982.1
2022-10-25T10:55:00.356Z,982.1
2022-10-25T11:00:00.357Z,981.9
2022-10-25T11:05:00.364Z,981.4
2022-10-25T11:10:00.370Z,981.4
2022-10-25T11:15:00.368Z,980.1
2022-10-25T11:20:00.387Z,980.1
2022-10-25T11:25:00.383Z,979.9
2022-10-25T11:30:00.389Z,978.4
2022-10-25T11:35:00.391Z,978.8
2022-10-25T11:40:00.404Z,977.1
2022-10-25T11:45:00.406Z,976.7
2022-10-25T11:50:00.427Z,977.5
2022-10-25T11:55:00.415Z,976.9
2022-10-25T12:00:00.422Z,976.7
2022-10-25T12:05:00.457Z,977.3
2022-10-25T12:10:00.429Z,976.7
2022-10-25T12:15:00.433Z,976.9
2022-10-25T12:20:00.450Z,976.9
2022-10-25T12:25:00.444Z,976.7
2022-10-25T12:30:00.453Z,976.7
2022-10-25T12:35:00.456Z,976.7
2022-10-25T12:40:00.506Z,975.6
2022-10-25T12:45:00.464Z,976.2
2022-10-25T12:50:00.468Z,975.8
2022-10-25T12:55:00.476Z,975.4
2022-10-25T13:00:00.488Z,975.4
2022-10-25T13:05:00.514Z,974.9
2022-10-25T13:10:00.491Z,975.4
2022-10-25T13:15:00.495Z,974.9
2022-10-25T13:20:00.497Z,974
2022-10-25T13:25:00.515Z,973.4
2022-10-25T13:30:00.612Z,972.3
2022-10-25T13:35:00.462Z,973.6
2022-10-25T13:40:00.341Z,974
2022-10-25T13:45:00.272Z,974.5
2022-10-25T13:50:00.160Z,974
2022-10-25T13:55:00.303Z,973.2
2022-10-25T14:00:00.254Z,974.3
2022-10-25T14:05:00.121Z,972.7
2022-10-25T14:10:00.144Z,972.7
2022-10-25T14:15:00.173Z,972.7
2022-10-25T14:20:00.272Z,971.9
2022-10-25T14:25:00.138Z,973.4
2022-10-25T14:30:00.146Z,974.5
2022-10-25T14:35:00.140Z,974.5
2022-10-25T14:40:00.230Z,974.5
2022-10-25T14:45:00.153Z,974.9
2022-10-25T14:50:00.298Z,974.9
2022-10-25T14:55:00.162Z,975.4
2022-10-25T15:00:00.415Z,976.2
2022-10-25T15:05:00.175Z,976.7
2022-10-25T15:10:00.376Z,977.1
2022-10-25T15:15:00.185Z,977.7
2022-10-25T15:20:00.400Z,978
2022-10-25T15:25:00.198Z,978.6
2022-10-25T15:30:00.254Z,979
2022-10-25T15:35:00.206Z,979.3
2022-10-25T15:40:00.217Z,979.5
2022-10-25T15:45:00.212Z,979.7
2022-10-25T15:50:00.219Z,980.1
2022-10-25T15:55:00.225Z,980.1
2022-10-25T16:00:00.232Z,980.6
2022-10-25T16:05:00.233Z,980.6
2022-10-25T16:10:00.260Z,981
2022-10-25T16:15:00.251Z,981.4
2022-10-25T16:20:00.253Z,981.4
2022-10-25T16:25:00.273Z,981.7
2022-10-25T16:30:00.498Z,981.9
2022-10-25T16:35:00.571Z,982.3
2022-10-25T16:40:00.524Z,982.7
2022-10-25T16:45:00.598Z,982.7
2022-10-25T16:50:00.434Z,983.2
2022-10-25T16:55:00.433Z,983.4
2022-10-25T17:00:00.464Z,983.8
2022-10-25T17:05:00.496Z,984
2022-10-25T17:10:00.453Z,984.5
2022-10-25T17:15:00.463Z,984.5
2022-10-25T17:20:00.514Z,984.9
2022-10-25T17:25:00.508Z,984.7
2022-10-25T17:30:00.499Z,984.5
2022-10-25T17:35:00.503Z,984.5
2022-10-25T17:40:00.493Z,984.5
2022-10-25T17:45:00.495Z,984.5
2022-10-25T17:50:00.499Z,984.7
2022-10-25T17:55:00.522Z,984.5
2022-10-25T18:00:00.521Z,984.7
2022-10-25T18:05:19.405Z,984.9
2022-10-25T18:10:00.523Z,984.9
2022-10-25T18:15:00.545Z,985.4
2022-10-25T18:20:00.533Z,985.8
2022-10-25T18:25:00.554Z,986
2022-10-25T18:30:00.381Z,986
2022-10-25T18:35:00.458Z,986.2
2022-10-25T18:40:00.520Z,986.2
2022-10-25T18:45:00.404Z,986.2
2022-10-25T18:50:00.440Z,986.2
2022-10-25T18:55:00.414Z,986
2022-10-25T19:00:00.417Z,986.4
2022-10-25T19:05:00.506Z,986.7
2022-10-25T19:10:00.434Z,986.7
2022-10-25T19:15:00.434Z,986.9
2022-10-25T19:20:00.446Z,986.7
2022-10-25T19:25:00.545Z,986.9
2022-10-25T19:30:00.450Z,987.1
2022-10-25T19:35:00.422Z,987.1
2022-10-25T19:40:00.276Z,987.1
2022-10-25T19:50:00.138Z,987.3
2022-10-25T19:55:00.224Z,987.3
2022-10-25T20:00:00.145Z,987.1
2022-10-25T20:05:00.230Z,987.3
2022-10-25T20:10:00.130Z,987.5
2022-10-25T20:15:00.205Z,987.5
2022-10-25T20:20:00.151Z,987.5
2022-10-25T20:25:00.164Z,987.5
2022-10-25T20:30:00.147Z,987.7
2022-10-25T20:35:00.182Z,987.5
2022-10-25T20:40:00.152Z,987.5
2022-10-25T20:45:00.328Z,987.3
2022-10-25T20:50:00.167Z,987.1
2022-10-25T20:55:00.282Z,987.1
2022-10-25T21:00:00.167Z,987.3
2022-10-25T21:05:00.170Z,987.1
2022-10-25T21:10:00.180Z,987.1
2022-10-25T21:15:00.211Z,986.9
2022-10-25T21:20:00.188Z,987.1
2022-10-25T21:25:00.228Z,986.9
2022-10-25T21:30:00.209Z,986.9
2022-10-25T21:35:00.200Z,986.9
2022-10-25T21:40:00.220Z,987.1
2022-10-25T21:45:00.377Z,987.1
2022-10-25T21:50:00.476Z,987.1
2022-10-25T21:55:00.230Z,987.1
2022-10-25T22:00:00.389Z,986.9
2022-10-25T22:05:00.403Z,987.1
2022-10-25T22:10:00.399Z,986.9
2022-10-25T22:15:00.535Z,987.1
2022-10-25T22:20:00.634Z,986.9
2022-10-25T22:25:00.302Z,986.7
2022-10-25T22:30:00.932Z,986.9
2022-10-25T22:35:00.639Z,986.9
2022-10-25T22:40:00.837Z,986.7
2022-10-25T22:45:00.796Z,986.7
2022-10-25T22:50:00.611Z,986.7
2022-10-25T22:55:00.288Z,986.7
2022-10-25T23:00:00.696Z,986.7
2022-10-25T23:05:00.492Z,986.7
2022-10-25T23:10:00.728Z,986.7
2022-10-25T23:15:00.577Z,986.2
2022-10-25T23:20:00.683Z,986.7
2022-10-25T23:25:00.574Z,986.2
2022-10-25T23:30:00.768Z,986.7
2022-10-25T23:35:00.654Z,986.7
2022-10-25T23:40:00.682Z,986.4
2022-10-25T23:45:00.617Z,986.4
2022-10-25T23:50:00.521Z,986.4
2022-10-25T23:55:00.612Z,986.4
